sensor_id;sensor_type;location;lat;lon;timestamp;P1;durP1;ratioP1;P2;durP2;ratioP2
20880;SDS011;10600;53.096;8.802;2023-03-01T00:00:30;40.85;;;24.08;;
20880;SDS011;10600;53.096;8.802;2023-03-01T00:01:31;47.33;;;26.55;;
20880;SDS011;10600;53.096;8.802;2023-03-01T00:02:31;44.50;;;26.52;;
20880;SDS011;10600;53.096;8.802;2023-03-01T00:03:32;48.63;;;26.02;;
20880;SDS011;10600;53.096;8.802;2023-03-01T00:04:33;44.10;;;25.73;;
20880;SDS011;10600;53.096;8.802;2023-03-01T00:05:35;52.70;;;25.10;;
20880;SDS011;10600;53.096;8.802;2023-03-01T00:06:36;44.03;;;23.80;;
20880;SDS011;10600;53.096;8.802;2023-03-01T00:07:37;45.15;;;24.52;;
20880;SDS011;10600;53.096;8.802;2023-03-01T00:08:37;41.53;;;23.63;;
20880;SDS011;10600;53.096;8.802;2023-03-01T00:09:38;41.47;;;24.33;;
20880;SDS011;10600;53.096;8.802;2023-03-01T00:10:40;39.47;;;23.48;;
20880;SDS011;10600;53.096;8.802;2023-03-01T00:11:40;44.85;;;23.70;;
20880;SDS011;10600;53.096;8.802;2023-03-01T00:12:41;41.65;;;23.67;;
20880;SDS011;10600;53.096;8.802;2023-03-01T00:13:42;46.05;;;24.40;;
20880;SDS011;10600;53.096;8.802;2023-03-01T00:14:43;43.28;;;24.30;;
20880;SDS011;10600;53.096;8.802;2023-03-01T00:15:44;40.20;;;22.90;;
20880;SDS011;10600;53.096;8.802;2023-03-01T00:16:45;43.40;;;23.83;;
20880;SDS011;10600;53.096;8.802;2023-03-01T00:17:46;45.88;;;23.42;;
20880;SDS011;10600;53.096;8.802;2023-03-01T00:18:47;43.33;;;22.52;;
20880;SDS011;10600;53.096;8.802;2023-03-01T00:19:47;39.08;;;22.55;;
20880;SDS011;10600;53.096;8.802;2023-03-01T00:20:51;37.42;;;22.23;;
20880;SDS011;10600;53.096;8.802;2023-03-01T00:21:53;41.85;;;22.92;;
20880;SDS011;10600;53.096;8.802;2023-03-01T00:22:54;45.10;;;22.90;;
20880;SDS011;10600;53.096;8.802;2023-03-01T00:23:54;39.70;;;22.42;;
20880;SDS011;10600;53.096;8.802;2023-03-01T00:24:55;39.97;;;21.80;;
20880;SDS011;10600;53.096;8.802;2023-03-01T00:25:56;36.33;;;20.80;;
20880;SDS011;10600;53.096;8.802;2023-03-01T00:26:57;41.38;;;22.40;;
20880;SDS011;10600;53.096;8.802;2023-03-01T00:27:57;35.20;;;20.35;;
20880;SDS011;10600;53.096;8.802;2023-03-01T00:28:58;36.08;;;20.88;;
20880;SDS011;10600;53.096;8.802;2023-03-01T00:29:59;39.53;;;22.40;;
20880;SDS011;10600;53.096;8.802;2023-03-01T00:31:06;40.38;;;23.30;;
20880;SDS011;10600;53.096;8.802;2023-03-01T00:32:09;39.53;;;22.02;;
20880;SDS011;10600;53.096;8.802;2023-03-01T00:33:10;38.03;;;23.23;;
20880;SDS011;10600;53.096;8.802;2023-03-01T00:34:10;38.05;;;22.50;;
20880;SDS011;10600;53.096;8.802;2023-03-01T00:35:11;38.50;;;20.92;;
20880;SDS011;10600;53.096;8.802;2023-03-01T00:36:12;35.58;;;20.00;;
20880;SDS011;10600;53.096;8.802;2023-03-01T00:37:14;38.08;;;21.13;;
20880;SDS011;10600;53.096;8.802;2023-03-01T00:38:15;31.65;;;19.17;;
20880;SDS011;10600;53.096;8.802;2023-03-01T00:39:15;34.65;;;21.63;;
20880;SDS011;10600;53.096;8.802;2023-03-01T00:40:16;38.38;;;21.80;;
20880;SDS011;10600;53.096;8.802;2023-03-01T00:41:17;38.10;;;21.33;;
20880;SDS011;10600;53.096;8.802;2023-03-01T00:42:19;39.05;;;21.92;;
20880;SDS011;10600;53.096;8.802;2023-03-01T00:43:19;37.00;;;20.45;;
20880;SDS011;10600;53.096;8.802;2023-03-01T00:44:20;34.85;;;20.15;;
20880;SDS011;10600;53.096;8.802;2023-03-01T00:45:21;35.00;;;19.70;;
20880;SDS011;10600;53.096;8.802;2023-03-01T00:46:25;34.50;;;19.95;;
20880;SDS011;10600;53.096;8.802;2023-03-01T00:47:28;37.70;;;20.45;;
20880;SDS011;10600;53.096;8.802;2023-03-01T00:48:29;39.50;;;21.05;;
20880;SDS011;10600;53.096;8.802;2023-03-01T00:49:30;34.90;;;18.75;;
20880;SDS011;10600;53.096;8.802;2023-03-01T00:50:31;36.47;;;19.88;;
20880;SDS011;10600;53.096;8.802;2023-03-01T00:51:31;32.50;;;19.05;;
20880;SDS011;10600;53.096;8.802;2023-03-01T00:52:32;34.78;;;19.83;;
20880;SDS011;10600;53.096;8.802;2023-03-01T00:53:33;32.25;;;19.27;;
20880;SDS011;10600;53.096;8.802;2023-03-01T00:54:34;34.38;;;19.48;;
20880;SDS011;10600;53.096;8.802;2023-03-01T00:55:35;31.95;;;19.55;;
20880;SDS011;10600;53.096;8.802;2023-03-01T00:56:36;36.70;;;19.27;;
20880;SDS011;10600;53.096;8.802;2023-03-01T00:57:37;36.22;;;20.45;;
20880;SDS011;10600;53.096;8.802;2023-03-01T00:58:38;34.78;;;19.90;;
20880;SDS011;10600;53.096;8.802;2023-03-01T00:59:39;32.80;;;18.77;;
20880;SDS011;10600;53.096;8.802;2023-03-01T01:00:39;31.08;;;18.40;;
20880;SDS011;10600;53.096;8.802;2023-03-01T01:01:40;34.45;;;19.40;;
20880;SDS011;10600;53.096;8.802;2023-03-01T01:02:41;34.58;;;20.30;;
20880;SDS011;10600;53.096;8.802;2023-03-01T01:03:49;32.40;;;19.20;;
20880;SDS011;10600;53.096;8.802;2023-03-01T01:04:52;36.75;;;18.85;;
20880;SDS011;10600;53.096;8.802;2023-03-01T01:05:52;41.63;;;20.17;;
20880;SDS011;10600;53.096;8.802;2023-03-01T01:06:53;33.53;;;18.65;;
20880;SDS011;10600;53.096;8.802;2023-03-01T01:07:54;32.33;;;18.50;;
20880;SDS011;10600;53.096;8.802;2023-03-01T01:08:55;33.55;;;18.50;;
20880;SDS011;10600;53.096;8.802;2023-03-01T01:09:56;28.50;;;16.55;;
20880;SDS011;10600;53.096;8.802;2023-03-01T01:10:57;32.08;;;17.10;;
20880;SDS011;10600;53.096;8.802;2023-03-01T01:11:57;30.20;;;17.40;;
20880;SDS011;10600;53.096;8.802;2023-03-01T01:12:58;33.13;;;19.42;;
20880;SDS011;10600;53.096;8.802;2023-03-01T01:13:58;27.63;;;17.08;;
20880;SDS011;10600;53.096;8.802;2023-03-01T01:14:59;32.65;;;18.05;;
20880;SDS011;10600;53.096;8.802;2023-03-01T01:16:00;32.50;;;19.13;;
20880;SDS011;10600;53.096;8.802;2023-03-01T01:17:01;32.60;;;18.52;;
20880;SDS011;10600;53.096;8.802;2023-03-01T01:18:02;29.58;;;18.88;;
20880;SDS011;10600;53.096;8.802;2023-03-01T01:19:03;30.33;;;18.23;;
20880;SDS011;10600;53.096;8.802;2023-03-01T01:20:04;28.95;;;18.02;;
20880;SDS011;10600;53.096;8.802;2023-03-01T01:21:06;32.70;;;19.00;;
20880;SDS011;10600;53.096;8.802;2023-03-01T01:22:09;32.25;;;18.17;;
20880;SDS011;10600;53.096;8.802;2023-03-01T01:23:10;32.63;;;17.92;;
20880;SDS011;10600;53.096;8.802;2023-03-01T01:24:11;31.25;;;18.65;;
20880;SDS011;10600;53.096;8.802;2023-03-01T01:25:12;32.15;;;18.25;;
20880;SDS011;10600;53.096;8.802;2023-03-01T01:26:17;33.08;;;18.50;;
20880;SDS011;10600;53.096;8.802;2023-03-01T01:27:22;33.25;;;18.10;;
20880;SDS011;10600;53.096;8.802;2023-03-01T01:28:22;28.15;;;16.75;;
20880;SDS011;10600;53.096;8.802;2023-03-01T01:29:23;32.28;;;17.45;;
20880;SDS011;10600;53.096;8.802;2023-03-01T01:30:24;31.27;;;17.60;;
20880;SDS011;10600;53.096;8.802;2023-03-01T01:31:25;30.92;;;17.20;;
20880;SDS011;10600;53.096;8.802;2023-03-01T01:32:26;29.45;;;18.02;;
20880;SDS011;10600;53.096;8.802;2023-03-01T01:33:27;31.80;;;17.38;;
20880;SDS011;10600;53.096;8.802;2023-03-01T01:34:28;30.13;;;17.25;;
20880;SDS011;10600;53.096;8.802;2023-03-01T01:35:28;30.35;;;17.85;;
20880;SDS011;10600;53.096;8.802;2023-03-01T01:36:29;32.53;;;18.52;;
20880;SDS011;10600;53.096;8.802;2023-03-01T01:37:30;27.13;;;16.17;;
20880;SDS011;10600;53.096;8.802;2023-03-01T01:38:34;29.00;;;17.42;;
20880;SDS011;10600;53.096;8.802;2023-03-01T01:39:36;27.98;;;17.33;;
20880;SDS011;10600;53.096;8.802;2023-03-01T01:40:42;34.42;;;17.67;;
20880;SDS011;10600;53.096;8.802;2023-03-01T01:41:44;30.35;;;17.95;;
20880;SDS011;10600;53.096;8.802;2023-03-01T01:42:44;30.95;;;17.80;;
20880;SDS011;10600;53.096;8.802;2023-03-01T01:44:28;30.83;;;16.88;;
20880;SDS011;10600;53.096;8.802;2023-03-01T01:46:28;31.30;;;17.65;;
20880;SDS011;10600;53.096;8.802;2023-03-01T01:47:33;31.60;;;18.25;;
20880;SDS011;10600;53.096;8.802;2023-03-01T01:48:39;28.50;;;16.15;;
20880;SDS011;10600;53.096;8.802;2023-03-01T01:49:47;29.67;;;18.23;;
20880;SDS011;10600;53.096;8.802;2023-03-01T01:50:58;31.60;;;17.50;;
20880;SDS011;10600;53.096;8.802;2023-03-01T01:52:12;29.45;;;18.25;;
20880;SDS011;10600;53.096;8.802;2023-03-01T01:53:18;31.42;;;16.90;;
20880;SDS011;10600;53.096;8.802;2023-03-01T01:56:01;28.55;;;15.85;;
20880;SDS011;10600;53.096;8.802;2023-03-01T01:57:04;28.17;;;16.25;;
20880;SDS011;10600;53.096;8.802;2023-03-01T01:58:09;29.05;;;17.20;;
20880;SDS011;10600;53.096;8.802;2023-03-01T01:59:13;25.77;;;16.33;;
20880;SDS011;10600;53.096;8.802;2023-03-01T02:00:19;28.90;;;17.27;;
20880;SDS011;10600;53.096;8.802;2023-03-01T02:01:22;33.53;;;18.80;;
20880;SDS011;10600;53.096;8.802;2023-03-01T02:02:23;35.95;;;19.60;;
20880;SDS011;10600;53.096;8.802;2023-03-01T02:03:26;38.88;;;19.80;;
20880;SDS011;10600;53.096;8.802;2023-03-01T02:04:33;36.10;;;19.23;;
20880;SDS011;10600;53.096;8.802;2023-03-01T02:06:51;37.28;;;18.95;;
20880;SDS011;10600;53.096;8.802;2023-03-01T02:07:58;38.22;;;19.10;;
20880;SDS011;10600;53.096;8.802;2023-03-01T02:09:00;39.03;;;20.67;;
20880;SDS011;10600;53.096;8.802;2023-03-01T02:10:06;33.15;;;18.98;;
20880;SDS011;10600;53.096;8.802;2023-03-01T02:11:08;36.17;;;19.08;;
20880;SDS011;10600;53.096;8.802;2023-03-01T02:12:10;32.00;;;18.48;;
20880;SDS011;10600;53.096;8.802;2023-03-01T02:13:10;31.77;;;19.02;;
20880;SDS011;10600;53.096;8.802;2023-03-01T02:14:12;33.80;;;18.88;;
20880;SDS011;10600;53.096;8.802;2023-03-01T02:15:12;28.65;;;18.45;;
20880;SDS011;10600;53.096;8.802;2023-03-01T02:16:13;32.03;;;18.90;;
20880;SDS011;10600;53.096;8.802;2023-03-01T02:17:16;34.08;;;19.67;;
20880;SDS011;10600;53.096;8.802;2023-03-01T02:18:18;34.00;;;18.33;;
20880;SDS011;10600;53.096;8.802;2023-03-01T02:19:28;33.10;;;18.90;;
20880;SDS011;10600;53.096;8.802;2023-03-01T02:21:03;38.53;;;19.92;;
20880;SDS011;10600;53.096;8.802;2023-03-01T02:22:24;40.25;;;19.85;;
20880;SDS011;10600;53.096;8.802;2023-03-01T02:23:28;38.97;;;21.00;;
20880;SDS011;10600;53.096;8.802;2023-03-01T02:26:01;37.50;;;19.45;;
20880;SDS011;10600;53.096;8.802;2023-03-01T02:27:18;36.67;;;19.63;;
20880;SDS011;10600;53.096;8.802;2023-03-01T02:28:33;33.20;;;18.40;;
20880;SDS011;10600;53.096;8.802;2023-03-01T02:29:36;34.90;;;18.98;;
20880;SDS011;10600;53.096;8.802;2023-03-01T02:30:36;34.08;;;18.15;;
20880;SDS011;10600;53.096;8.802;2023-03-01T02:31:58;29.75;;;17.55;;
20880;SDS011;10600;53.096;8.802;2023-03-01T02:33:03;30.48;;;18.20;;
20880;SDS011;10600;53.096;8.802;2023-03-01T02:34:04;34.70;;;17.85;;
20880;SDS011;10600;53.096;8.802;2023-03-01T02:35:06;41.63;;;20.10;;
20880;SDS011;10600;53.096;8.802;2023-03-01T02:36:24;31.45;;;19.05;;
20880;SDS011;10600;53.096;8.802;2023-03-01T02:37:31;30.30;;;18.50;;
20880;SDS011;10600;53.096;8.802;2023-03-01T02:38:32;34.88;;;19.50;;
20880;SDS011;10600;53.096;8.802;2023-03-01T02:39:43;34.38;;;19.40;;
20880;SDS011;10600;53.096;8.802;2023-03-01T02:40:48;31.83;;;18.92;;
20880;SDS011;10600;53.096;8.802;2023-03-01T02:41:52;36.33;;;19.67;;
20880;SDS011;10600;53.096;8.802;2023-03-01T02:42:54;33.17;;;20.38;;
20880;SDS011;10600;53.096;8.802;2023-03-01T02:43:57;34.30;;;21.23;;
20880;SDS011;10600;53.096;8.802;2023-03-01T02:44:58;39.75;;;21.67;;
20880;SDS011;10600;53.096;8.802;2023-03-01T02:46:01;40.53;;;22.10;;
20880;SDS011;10600;53.096;8.802;2023-03-01T02:47:08;36.58;;;20.80;;
20880;SDS011;10600;53.096;8.802;2023-03-01T02:48:09;41.58;;;20.90;;
20880;SDS011;10600;53.096;8.802;2023-03-01T02:49:20;36.78;;;20.35;;
20880;SDS011;10600;53.096;8.802;2023-03-01T02:52:59;33.67;;;19.42;;
20880;SDS011;10600;53.096;8.802;2023-03-01T02:54:29;33.38;;;18.05;;
20880;SDS011;10600;53.096;8.802;2023-03-01T02:55:38;33.78;;;19.70;;
20880;SDS011;10600;53.096;8.802;2023-03-01T02:56:40;34.80;;;20.17;;
20880;SDS011;10600;53.096;8.802;2023-03-01T02:57:42;36.53;;;18.80;;
20880;SDS011;10600;53.096;8.802;2023-03-01T02:58:44;31.58;;;18.33;;
20880;SDS011;10600;53.096;8.802;2023-03-01T02:59:48;35.92;;;19.20;;
20880;SDS011;10600;53.096;8.802;2023-03-01T03:00:49;34.13;;;19.00;;
20880;SDS011;10600;53.096;8.802;2023-03-01T03:01:51;33.78;;;19.08;;
20880;SDS011;10600;53.096;8.802;2023-03-01T03:02:52;33.38;;;18.98;;
20880;SDS011;10600;53.096;8.802;2023-03-01T03:03:53;29.27;;;18.98;;
20880;SDS011;10600;53.096;8.802;2023-03-01T03:04:54;33.35;;;19.17;;
20880;SDS011;10600;53.096;8.802;2023-03-01T03:05:55;37.05;;;21.45;;
20880;SDS011;10600;53.096;8.802;2023-03-01T03:06:55;34.50;;;19.60;;
20880;SDS011;10600;53.096;8.802;2023-03-01T03:07:57;35.55;;;20.92;;
20880;SDS011;10600;53.096;8.802;2023-03-01T03:08:59;36.05;;;19.60;;
20880;SDS011;10600;53.096;8.802;2023-03-01T03:10:00;35.45;;;19.00;;
20880;SDS011;10600;53.096;8.802;2023-03-01T03:11:01;35.08;;;19.08;;
20880;SDS011;10600;53.096;8.802;2023-03-01T03:12:02;34.55;;;19.30;;
20880;SDS011;10600;53.096;8.802;2023-03-01T03:13:04;30.17;;;19.10;;
20880;SDS011;10600;53.096;8.802;2023-03-01T03:14:07;32.47;;;18.92;;
20880;SDS011;10600;53.096;8.802;2023-03-01T03:15:15;34.88;;;19.00;;
20880;SDS011;10600;53.096;8.802;2023-03-01T03:16:15;36.60;;;18.92;;
20880;SDS011;10600;53.096;8.802;2023-03-01T03:17:16;34.78;;;18.95;;
20880;SDS011;10600;53.096;8.802;2023-03-01T03:18:17;33.40;;;19.92;;
20880;SDS011;10600;53.096;8.802;2023-03-01T03:19:18;36.78;;;18.83;;
20880;SDS011;10600;53.096;8.802;2023-03-01T03:20:20;30.60;;;18.95;;
20880;SDS011;10600;53.096;8.802;2023-03-01T03:21:24;35.63;;;20.40;;
20880;SDS011;10600;53.096;8.802;2023-03-01T03:22:24;37.58;;;20.65;;
20880;SDS011;10600;53.096;8.802;2023-03-01T03:23:27;35.30;;;19.77;;
20880;SDS011;10600;53.096;8.802;2023-03-01T03:24:29;38.00;;;20.15;;
20880;SDS011;10600;53.096;8.802;2023-03-01T03:25:37;36.75;;;20.77;;
20880;SDS011;10600;53.096;8.802;2023-03-01T03:26:38;34.88;;;19.92;;
20880;SDS011;10600;53.096;8.802;2023-03-01T03:27:40;34.33;;;20.10;;
20880;SDS011;10600;53.096;8.802;2023-03-01T03:28:42;39.83;;;18.77;;
20880;SDS011;10600;53.096;8.802;2023-03-01T03:29:43;34.30;;;19.85;;
20880;SDS011;10600;53.096;8.802;2023-03-01T03:30:43;33.20;;;19.55;;
20880;SDS011;10600;53.096;8.802;2023-03-01T03:31:45;33.47;;;19.50;;
20880;SDS011;10600;53.096;8.802;2023-03-01T03:32:46;36.08;;;20.55;;
20880;SDS011;10600;53.096;8.802;2023-03-01T03:33:52;34.10;;;22.25;;
20880;SDS011;10600;53.096;8.802;2023-03-01T03:34:53;38.35;;;21.20;;
20880;SDS011;10600;53.096;8.802;2023-03-01T03:35:53;34.33;;;21.33;;
20880;SDS011;10600;53.096;8.802;2023-03-01T03:36:55;34.78;;;20.40;;
20880;SDS011;10600;53.096;8.802;2023-03-01T03:37:57;34.70;;;20.42;;
20880;SDS011;10600;53.096;8.802;2023-03-01T03:39:02;32.97;;;19.85;;
20880;SDS011;10600;53.096;8.802;2023-03-01T03:40:03;31.95;;;19.98;;
20880;SDS011;10600;53.096;8.802;2023-03-01T03:41:05;31.70;;;19.90;;
20880;SDS011;10600;53.096;8.802;2023-03-01T03:42:07;33.60;;;21.73;;
20880;SDS011;10600;53.096;8.802;2023-03-01T03:43:10;35.72;;;21.33;;
20880;SDS011;10600;53.096;8.802;2023-03-01T03:44:13;41.70;;;22.63;;
20880;SDS011;10600;53.096;8.802;2023-03-01T03:45:14;38.03;;;23.90;;
20880;SDS011;10600;53.096;8.802;2023-03-01T03:46:15;33.38;;;21.35;;
20880;SDS011;10600;53.096;8.802;2023-03-01T03:47:16;39.20;;;21.63;;
20880;SDS011;10600;53.096;8.802;2023-03-01T03:48:17;32.97;;;21.42;;
20880;SDS011;10600;53.096;8.802;2023-03-01T03:49:18;35.90;;;21.70;;
20880;SDS011;10600;53.096;8.802;2023-03-01T03:50:19;38.67;;;22.00;;
20880;SDS011;10600;53.096;8.802;2023-03-01T03:51:20;34.08;;;21.17;;
20880;SDS011;10600;53.096;8.802;2023-03-01T03:52:22;32.58;;;21.08;;
20880;SDS011;10600;53.096;8.802;2023-03-01T03:53:23;33.22;;;20.52;;
20880;SDS011;10600;53.096;8.802;2023-03-01T03:54:25;36.10;;;21.17;;
20880;SDS011;10600;53.096;8.802;2023-03-01T03:55:26;35.35;;;19.98;;
20880;SDS011;10600;53.096;8.802;2023-03-01T03:56:30;32.78;;;19.60;;
20880;SDS011;10600;53.096;8.802;2023-03-01T03:57:31;34.95;;;19.67;;
20880;SDS011;10600;53.096;8.802;2023-03-01T03:58:31;33.88;;;19.40;;
20880;SDS011;10600;53.096;8.802;2023-03-01T03:59:32;31.65;;;20.35;;
20880;SDS011;10600;53.096;8.802;2023-03-01T04:00:40;34.58;;;20.00;;
20880;SDS011;10600;53.096;8.802;2023-03-01T04:01:42;33.95;;;20.33;;
20880;SDS011;10600;53.096;8.802;2023-03-01T04:02:45;35.15;;;20.77;;
20880;SDS011;10600;53.096;8.802;2023-03-01T04:03:46;33.00;;;20.55;;
20880;SDS011;10600;53.096;8.802;2023-03-01T04:04:46;39.15;;;22.10;;
20880;SDS011;10600;53.096;8.802;2023-03-01T04:05:50;33.15;;;21.33;;
20880;SDS011;10600;53.096;8.802;2023-03-01T04:06:51;38.33;;;21.23;;
20880;SDS011;10600;53.096;8.802;2023-03-01T04:07:51;33.92;;;20.63;;
20880;SDS011;10600;53.096;8.802;2023-03-01T04:09:01;35.72;;;21.13;;
20880;SDS011;10600;53.096;8.802;2023-03-01T04:10:03;35.83;;;20.60;;
20880;SDS011;10600;53.096;8.802;2023-03-01T04:11:05;31.95;;;19.15;;
20880;SDS011;10600;53.096;8.802;2023-03-01T04:12:24;25.63;;;17.17;;
20880;SDS011;10600;53.096;8.802;2023-03-01T04:13:25;33.55;;;18.20;;
20880;SDS011;10600;53.096;8.802;2023-03-01T04:14:26;29.50;;;18.33;;
20880;SDS011;10600;53.096;8.802;2023-03-01T04:15:27;31.58;;;18.90;;
20880;SDS011;10600;53.096;8.802;2023-03-01T04:16:27;30.30;;;17.30;;
20880;SDS011;10600;53.096;8.802;2023-03-01T04:17:28;32.13;;;17.63;;
20880;SDS011;10600;53.096;8.802;2023-03-01T04:18:29;30.38;;;17.80;;
20880;SDS011;10600;53.096;8.802;2023-03-01T04:19:31;31.63;;;18.85;;
20880;SDS011;10600;53.096;8.802;2023-03-01T04:20:36;32.45;;;17.35;;
20880;SDS011;10600;53.096;8.802;2023-03-01T04:21:36;30.70;;;18.85;;
20880;SDS011;10600;53.096;8.802;2023-03-01T04:22:37;30.10;;;18.33;;
20880;SDS011;10600;53.096;8.802;2023-03-01T04:23:39;30.48;;;18.40;;
20880;SDS011;10600;53.096;8.802;2023-03-01T04:24:40;28.42;;;16.63;;
20880;SDS011;10600;53.096;8.802;2023-03-01T04:26:55;32.30;;;18.48;;
20880;SDS011;10600;53.096;8.802;2023-03-01T04:27:56;32.97;;;19.58;;
20880;SDS011;10600;53.096;8.802;2023-03-01T04:28:56;32.55;;;18.08;;
20880;SDS011;10600;53.096;8.802;2023-03-01T04:29:57;26.83;;;17.48;;
20880;SDS011;10600;53.096;8.802;2023-03-01T04:30:58;32.42;;;18.88;;
20880;SDS011;10600;53.096;8.802;2023-03-01T04:32:04;34.33;;;18.73;;
20880;SDS011;10600;53.096;8.802;2023-03-01T04:33:05;33.78;;;18.35;;
20880;SDS011;10600;53.096;8.802;2023-03-01T04:34:11;31.95;;;18.35;;
20880;SDS011;10600;53.096;8.802;2023-03-01T04:35:14;36.78;;;20.48;;
20880;SDS011;10600;53.096;8.802;2023-03-01T04:36:15;31.13;;;19.45;;
20880;SDS011;10600;53.096;8.802;2023-03-01T04:37:16;30.55;;;18.20;;
20880;SDS011;10600;53.096;8.802;2023-03-01T04:38:17;31.30;;;18.83;;
20880;SDS011;10600;53.096;8.802;2023-03-01T04:39:18;32.80;;;18.90;;
20880;SDS011;10600;53.096;8.802;2023-03-01T04:40:19;29.85;;;18.27;;
20880;SDS011;10600;53.096;8.802;2023-03-01T04:41:22;32.70;;;19.42;;
20880;SDS011;10600;53.096;8.802;2023-03-01T04:42:23;30.65;;;19.10;;
20880;SDS011;10600;53.096;8.802;2023-03-01T04:43:24;32.50;;;19.08;;
20880;SDS011;10600;53.096;8.802;2023-03-01T04:44:25;31.55;;;18.98;;
20880;SDS011;10600;53.096;8.802;2023-03-01T04:45:25;35.58;;;20.60;;
20880;SDS011;10600;53.096;8.802;2023-03-01T04:46:26;34.58;;;18.80;;
20880;SDS011;10600;53.096;8.802;2023-03-01T04:47:27;30.58;;;18.35;;
20880;SDS011;10600;53.096;8.802;2023-03-01T04:48:27;30.90;;;18.02;;
20880;SDS011;10600;53.096;8.802;2023-03-01T04:49:28;34.40;;;18.63;;
20880;SDS011;10600;53.096;8.802;2023-03-01T04:50:29;34.80;;;19.60;;
20880;SDS011;10600;53.096;8.802;2023-03-01T04:51:30;34.83;;;19.13;;
20880;SDS011;10600;53.096;8.802;2023-03-01T04:52:32;35.30;;;19.15;;
20880;SDS011;10600;53.096;8.802;2023-03-01T04:53:33;33.00;;;19.60;;
20880;SDS011;10600;53.096;8.802;2023-03-01T04:54:36;33.40;;;20.05;;
20880;SDS011;10600;53.096;8.802;2023-03-01T04:55:36;30.23;;;18.67;;
20880;SDS011;10600;53.096;8.802;2023-03-01T04:56:37;31.75;;;19.70;;
20880;SDS011;10600;53.096;8.802;2023-03-01T04:57:38;34.03;;;20.67;;
20880;SDS011;10600;53.096;8.802;2023-03-01T04:58:39;35.88;;;20.48;;
20880;SDS011;10600;53.096;8.802;2023-03-01T04:59:40;35.60;;;20.50;;
20880;SDS011;10600;53.096;8.802;2023-03-01T05:00:40;34.65;;;20.25;;
20880;SDS011;10600;53.096;8.802;2023-03-01T05:01:41;34.83;;;19.85;;
20880;SDS011;10600;53.096;8.802;2023-03-01T05:02:42;38.13;;;21.67;;
20880;SDS011;10600;53.096;8.802;2023-03-01T05:03:44;35.72;;;20.60;;
20880;SDS011;10600;53.096;8.802;2023-03-01T05:04:45;37.45;;;20.20;;
20880;SDS011;10600;53.096;8.802;2023-03-01T05:05:47;36.20;;;20.63;;
20880;SDS011;10600;53.096;8.802;2023-03-01T05:06:50;36.63;;;20.27;;
20880;SDS011;10600;53.096;8.802;2023-03-01T05:07:51;36.63;;;20.63;;
20880;SDS011;10600;53.096;8.802;2023-03-01T05:08:53;37.90;;;21.05;;
20880;SDS011;10600;53.096;8.802;2023-03-01T05:09:53;41.05;;;20.15;;
20880;SDS011;10600;53.096;8.802;2023-03-01T05:10:54;35.20;;;20.85;;
20880;SDS011;10600;53.096;8.802;2023-03-01T05:11:55;38.17;;;21.50;;
20880;SDS011;10600;53.096;8.802;2023-03-01T05:12:56;35.13;;;19.85;;
20880;SDS011;10600;53.096;8.802;2023-03-01T05:13:57;35.83;;;19.65;;
20880;SDS011;10600;53.096;8.802;2023-03-01T05:14:58;42.35;;;21.80;;
20880;SDS011;10600;53.096;8.802;2023-03-01T05:15:59;39.05;;;21.80;;
20880;SDS011;10600;53.096;8.802;2023-03-01T05:17:01;40.17;;;21.70;;
20880;SDS011;10600;53.096;8.802;2023-03-01T05:18:03;39.67;;;21.20;;
20880;SDS011;10600;53.096;8.802;2023-03-01T05:19:07;39.17;;;21.20;;
20880;SDS011;10600;53.096;8.802;2023-03-01T05:20:15;41.53;;;23.25;;
20880;SDS011;10600;53.096;8.802;2023-03-01T05:21:16;44.85;;;24.08;;
20880;SDS011;10600;53.096;8.802;2023-03-01T05:22:16;35.58;;;22.02;;
20880;SDS011;10600;53.096;8.802;2023-03-01T05:23:19;33.95;;;21.08;;
20880;SDS011;10600;53.096;8.802;2023-03-01T05:24:19;39.00;;;21.27;;
20880;SDS011;10600;53.096;8.802;2023-03-01T05:25:20;35.60;;;20.65;;
20880;SDS011;10600;53.096;8.802;2023-03-01T05:26:21;35.35;;;21.67;;
20880;SDS011;10600;53.096;8.802;2023-03-01T05:27:27;34.33;;;20.50;;
20880;SDS011;10600;53.096;8.802;2023-03-01T05:28:29;34.90;;;19.98;;
20880;SDS011;10600;53.096;8.802;2023-03-01T05:29:30;37.13;;;21.55;;
20880;SDS011;10600;53.096;8.802;2023-03-01T05:30:35;35.55;;;21.58;;
20880;SDS011;10600;53.096;8.802;2023-03-01T05:31:35;35.67;;;21.15;;
20880;SDS011;10600;53.096;8.802;2023-03-01T05:32:38;39.95;;;22.42;;
20880;SDS011;10600;53.096;8.802;2023-03-01T05:33:43;35.35;;;22.67;;
20880;SDS011;10600;53.096;8.802;2023-03-01T05:34:44;37.45;;;22.60;;
20880;SDS011;10600;53.096;8.802;2023-03-01T05:35:46;33.38;;;21.27;;
20880;SDS011;10600;53.096;8.802;2023-03-01T05:36:48;34.20;;;20.95;;
20880;SDS011;10600;53.096;8.802;2023-03-01T05:37:53;36.67;;;21.27;;
20880;SDS011;10600;53.096;8.802;2023-03-01T05:38:53;35.90;;;21.73;;
20880;SDS011;10600;53.096;8.802;2023-03-01T05:39:54;41.40;;;21.45;;
20880;SDS011;10600;53.096;8.802;2023-03-01T05:40:55;35.95;;;21.33;;
20880;SDS011;10600;53.096;8.802;2023-03-01T05:41:56;37.25;;;22.45;;
20880;SDS011;10600;53.096;8.802;2023-03-01T05:42:58;37.10;;;22.83;;
20880;SDS011;10600;53.096;8.802;2023-03-01T05:43:58;39.53;;;22.00;;
20880;SDS011;10600;53.096;8.802;2023-03-01T05:44:59;37.90;;;21.40;;
20880;SDS011;10600;53.096;8.802;2023-03-01T05:45:59;33.65;;;21.27;;
20880;SDS011;10600;53.096;8.802;2023-03-01T05:47:00;37.75;;;21.67;;
20880;SDS011;10600;53.096;8.802;2023-03-01T05:48:01;38.40;;;22.00;;
20880;SDS011;10600;53.096;8.802;2023-03-01T05:49:01;33.60;;;21.77;;
20880;SDS011;10600;53.096;8.802;2023-03-01T05:50:02;35.20;;;21.15;;
20880;SDS011;10600;53.096;8.802;2023-03-01T05:51:03;38.50;;;22.23;;
20880;SDS011;10600;53.096;8.802;2023-03-01T05:52:04;36.72;;;21.50;;
20880;SDS011;10600;53.096;8.802;2023-03-01T05:53:12;39.47;;;22.92;;
20880;SDS011;10600;53.096;8.802;2023-03-01T05:54:14;36.97;;;22.10;;
20880;SDS011;10600;53.096;8.802;2023-03-01T05:55:19;39.03;;;21.88;;
20880;SDS011;10600;53.096;8.802;2023-03-01T05:56:21;38.50;;;23.10;;
20880;SDS011;10600;53.096;8.802;2023-03-01T05:57:22;41.60;;;24.27;;
20880;SDS011;10600;53.096;8.802;2023-03-01T05:58:22;40.42;;;22.20;;
20880;SDS011;10600;53.096;8.802;2023-03-01T05:59:24;37.17;;;22.10;;
20880;SDS011;10600;53.096;8.802;2023-03-01T06:00:24;38.15;;;21.92;;
20880;SDS011;10600;53.096;8.802;2023-03-01T06:01:25;39.67;;;22.95;;
20880;SDS011;10600;53.096;8.802;2023-03-01T06:02:26;36.80;;;23.02;;
20880;SDS011;10600;53.096;8.802;2023-03-01T06:03:27;38.70;;;22.98;;
20880;SDS011;10600;53.096;8.802;2023-03-01T06:04:27;39.05;;;23.33;;
20880;SDS011;10600;53.096;8.802;2023-03-01T06:05:28;40.08;;;22.02;;
20880;SDS011;10600;53.096;8.802;2023-03-01T06:06:29;38.72;;;23.40;;
20880;SDS011;10600;53.096;8.802;2023-03-01T06:07:33;40.20;;;23.42;;
20880;SDS011;10600;53.096;8.802;2023-03-01T06:08:34;37.28;;;23.25;;
20880;SDS011;10600;53.096;8.802;2023-03-01T06:09:35;39.88;;;21.38;;
20880;SDS011;10600;53.096;8.802;2023-03-01T06:10:36;40.85;;;22.50;;
20880;SDS011;10600;53.096;8.802;2023-03-01T06:11:36;43.50;;;23.25;;
20880;SDS011;10600;53.096;8.802;2023-03-01T06:12:38;33.95;;;21.45;;
20880;SDS011;10600;53.096;8.802;2023-03-01T06:13:41;37.20;;;21.33;;
20880;SDS011;10600;53.096;8.802;2023-03-01T06:14:45;36.40;;;21.23;;